Tropical Cyclones
[Index]
Main Index Home Page Stock Weather Photos Extreme Storms Discussion Storm News and Storm Chasing Reports Tropical Cyclones / Hurricanes / Typhoons Weather Data and Links Wild Fires / Bushfires Weather Observation Techniques Weather Picture Catalogue Tornado Pictures and Reports Stock Video Footage and DVDs for sale
Season 1975-1976 Tropical Cyclone ALAN Track Map
Season 1975-1976 Summaries: [BoM-AU] [JTWC-AU] [JTWC-SIO] [JTWC-SPAC] [JTWC-SH]
<<- Previous TC | BoM 1975-1976 Season | Next TC ->>

click for intensity scale information  Lat/long Grid: Show Hide

 Date Labels: Show Hide

Bureau of Meteorology Tropical Cyclone Data

Name: ALAN
Number: 552 / 197576_08

29 Jan 1976 23:00 UTC to 09 Feb 1976 11:00 UTC

    date/time    lat    long    hPa   cat  kts
1976-01-29 23   12.5   162.0   1007                     
1976-01-30 05   12.5   161.0   1005                     
1976-01-30 11   12.7   160.0   1007                     
1976-01-30 17   12.9   158.5   1005                     
1976-01-30 23   13.1   157.0   1004                     
1976-01-31 05   14.3   154.8   1003                     
1976-01-31 11   15.2   152.3   1002                     
1976-01-31 17   15.6   150.0    998                     
1976-01-31 23   15.8   148.0    994    1                
1976-02-01 05   15.8   146.6    995    1                
1976-02-01 11   15.6   145.3    996                     
1976-02-01 14   15.4   144.7    997                     
1976-02-01 17   15.7   143.6    998                     
1976-02-01 23   17.0   142.0   1001                     
1976-02-02 05   17.6   140.9    998                     
1976-02-02 11   17.9   140.3    999                     
1976-02-02 17   18.3   138.9   1000                     
1976-02-02 23   18.7   137.2   1003                     
1976-02-03 05   18.9   136.6    999                     
1976-02-03 11   19.1   136.2    998                     
1976-02-03 17   19.3   136.0    997                     
1976-02-03 23   19.3   135.7    996                     
1976-02-04 05   19.3   135.3    992    1                
1976-02-04 11   19.3   134.9    993    1                
1976-02-04 17   19.3   134.4    992    1                
1976-02-04 23   19.3   133.8    993    1                
1976-02-05 02   19.4   133.6    992    1                
1976-02-05 05   19.6   133.6    991    1                
1976-02-05 11   20.0   133.7    989    1                
1976-02-05 17   20.1   133.9    989    1                
1976-02-05 23   20.2   134.2    990    1                
1976-02-06 02   20.3   134.4    991    1                
1976-02-06 05   20.5   134.5    990    1                
1976-02-06 11   21.0   134.3    993    1                
1976-02-06 17   21.4   134.1    992    1                
1976-02-06 23   21.7   134.2    993    1                
1976-02-07 05   22.1   134.3    992    1                
1976-02-07 11   23.0   134.8    994    1                
1976-02-07 17   23.9   135.0    993    1                
1976-02-07 23   24.4   135.1    993    1                
1976-02-08 05   24.9   134.7    992    1                
1976-02-08 08   25.0   134.7    993    1                
1976-02-08 11   25.0   134.8    994    1                
1976-02-08 17   25.2   135.2    993    1                
1976-02-08 23   25.3   135.7    993    1                
1976-02-09 05   25.6   137.1    992    1                
1976-02-09 11   25.9   138.9    993    1                
Winds are 10-min average.

Tropical cyclone tracks developed by Michael Bath using data from the Bureau of Meteorology and Google Maps.


[Australian Severe Weather index] [Copyright Notice] [Email Contacts] [Search This Site] [Privacy Policy]
Document: tropical_cyclone_alan.htm Updated: 30 May 2013